Time;durP1;ratioP1;P1;durP2;ratioP2;P2;SDS_P1;SDS_P2;PMS_P1;PMS_P2;Temp;Humidity;BMP_temperature;BMP_pressure;BME280_temperature;BME280_humidity;BME280_pressure;Samples;Min_cycle;Max_cycle;Signal;HPM_P1;HPM_P2
2022/04/04 00:02:18;;;;;;;12.20;10.83;;;1.10;82.90;;;;;;5109672;28;20847;-44
2022/04/04 00:04:44;;;;;;;11.40;10.00;;;1.10;82.80;;;;;;5108841;28;20347;-44
2022/04/04 00:07:09;;;;;;;12.77;10.83;;;1.00;82.80;;;;;;5108456;28;20313;-44
2022/04/04 00:09:35;;;;;;;11.60;10.40;;;1.00;82.80;;;;;;5109269;28;20566;-44
2022/04/04 00:12:01;;;;;;;10.73;9.60;;;1.00;82.70;;;;;;5110270;28;20204;-44
2022/04/04 00:14:27;;;;;;;12.37;10.73;;;0.90;82.60;;;;;;5105961;28;20399;-45
2022/04/04 00:16:53;;;;;;;14.13;11.57;;;0.90;82.60;;;;;;5108865;28;20415;-45
2022/04/04 00:19:19;;;;;;;11.53;10.33;;;0.90;82.70;;;;;;5109490;28;20888;-45
2022/04/04 00:21:44;;;;;;;11.70;10.10;;;0.80;82.50;;;;;;5108876;28;20180;-44
2022/04/04 00:24:10;;;;;;;11.53;10.43;;;0.80;82.60;;;;;;5108871;28;20410;-44
2022/04/04 00:26:42;;;;;;;10.97;9.87;;;0.80;82.60;;;;;;5084070;28;20652;-45
2022/04/04 00:29:08;;;;;;;10.97;9.70;;;0.80;82.60;;;;;;5084879;28;20938;-46
2022/04/04 00:31:33;;;;;;;10.37;9.37;;;0.80;82.60;;;;;;5085678;28;20502;-45
2022/04/04 00:33:59;;;;;;;12.00;10.70;;;0.70;82.50;;;;;;5085767;28;20867;-45
2022/04/04 00:36:25;;;;;;;11.27;9.80;;;0.70;82.50;;;;;;5084153;28;20192;-45
2022/04/04 00:38:50;;;;;;;10.90;9.30;;;0.70;82.50;;;;;;5085216;28;20189;-45
2022/04/04 00:41:17;;;;;;;13.20;10.20;;;0.70;82.60;;;;;;5082262;28;20189;-45
2022/04/04 00:43:44;;;;;;;10.03;8.97;;;0.60;82.50;;;;;;5083938;28;20182;-46
2022/04/04 00:46:09;;;;;;;14.17;9.60;;;0.60;82.50;;;;;;5071202;28;20908;-45
2022/04/04 00:48:35;;;;;;;12.93;10.40;;;0.60;82.50;;;;;;5081944;28;20434;-45
2022/04/04 00:51:02;;;;;;;9.90;8.90;;;0.60;82.50;;;;;;5083797;28;20195;-45
2022/04/04 00:53:29;;;;;;;11.43;9.87;;;0.50;82.40;;;;;;5083970;28;20177;-46
2022/04/04 00:55:56;;;;;;;10.87;8.90;;;0.50;82.50;;;;;;5083383;28;20454;-45
2022/04/04 00:58:22;;;;;;;13.17;9.07;;;0.50;82.60;;;;;;5085064;28;20877;-46
2022/04/04 01:00:49;;;;;;;9.80;8.80;;;0.50;82.60;;;;;;5085158;28;20415;-46
2022/04/04 01:03:18;;;;;;;13.20;10.77;;;0.50;82.60;;;;;;5084173;28;20434;-46
2022/04/04 01:05:44;;;;;;;13.37;10.30;;;0.40;82.50;;;;;;5071355;28;20471;-45
2022/04/04 01:08:13;;;;;;;10.27;9.27;;;0.40;82.50;;;;;;5084229;28;20459;-45
2022/04/04 01:10:40;;;;;;;11.40;9.20;;;0.40;82.50;;;;;;5085120;28;20883;-45
2022/04/04 01:13:07;;;;;;;10.80;9.40;;;0.40;82.50;;;;;;5084573;28;20435;-46
2022/04/04 01:15:32;;;;;;;10.50;9.10;;;0.40;82.60;;;;;;5086289;28;20442;-46
2022/04/04 01:17:59;;;;;;;10.07;9.00;;;0.30;82.40;;;;;;5084716;28;20415;-45
2022/04/04 01:20:25;;;;;;;10.33;9.20;;;0.30;82.50;;;;;;5085767;28;20533;-46
2022/04/04 01:22:50;;;;;;;10.27;9.27;;;0.30;82.40;;;;;;5081536;28;20509;-45
2022/04/04 01:25:22;;;;;;;11.83;9.83;;;0.30;82.40;;;;;;5066126;28;20233;-45
2022/04/04 01:27:48;;;;;;;12.20;10.63;;;0.30;82.50;;;;;;5064383;28;20204;-46
2022/04/04 01:30:13;;;;;;;12.37;8.70;;;0.20;82.30;;;;;;5066204;28;20506;-45
2022/04/04 01:32:40;;;;;;;11.20;9.73;;;0.20;82.40;;;;;;5066244;28;20803;-45
2022/04/04 01:35:06;;;;;;;14.10;10.67;;;0.20;82.40;;;;;;5086355;28;20646;-47
2022/04/04 01:37:32;;;;;;;11.37;9.57;;;0.20;82.40;;;;;;5075960;28;20438;-45
2022/04/04 01:39:58;;;;;;;11.93;10.30;;;0.20;82.40;;;;;;5071000;28;20439;-45
2022/04/04 01:42:24;;;;;;;10.73;9.63;;;0.10;82.30;;;;;;5069741;28;20442;-45
2022/04/04 01:44:49;;;;;;;12.23;10.10;;;0.10;82.40;;;;;;5069588;28;20529;-45
2022/04/04 01:47:15;;;;;;;10.20;9.10;;;0.10;83.10;;;;;;5070526;28;20195;-45
2022/04/04 01:49:41;;;;;;;11.77;9.83;;;0.10;82.50;;;;;;5052765;28;20204;-45
2022/04/04 01:52:06;;;;;;;9.40;8.50;;;0.10;82.60;;;;;;5071560;28;20492;-45
2022/04/04 01:54:32;;;;;;;12.93;9.93;;;0.00;82.50;;;;;;5056069;28;20190;-45
2022/04/04 01:56:58;;;;;;;10.70;9.60;;;0.00;82.50;;;;;;5068970;28;20191;-45
2022/04/04 01:59:23;;;;;;;12.93;9.40;;;0.00;82.50;;;;;;5069699;28;20415;-45
2022/04/04 02:01:49;;;;;;;11.53;9.40;;;0.00;82.40;;;;;;5070308;28;20190;-46
2022/04/04 02:04:15;;;;;;;12.23;9.40;;;0.00;82.40;;;;;;5069483;28;20578;-44
2022/04/04 02:06:40;;;;;;;9.73;8.60;;;0.00;82.50;;;;;;5070404;28;20475;-45
2022/04/04 02:09:07;;;;;;;10.60;9.50;;;0.00;82.50;;;;;;5068486;28;20548;-45
2022/04/04 02:11:33;;;;;;;11.33;9.50;;;0.00;82.50;;;;;;5071226;28;20274;-45
2022/04/04 02:14:02;;;;;;;14.43;9.80;;;-0.10;82.50;;;;;;5068493;28;20882;-45
2022/04/04 02:16:27;;;;;;;10.17;9.13;;;-0.10;82.50;;;;;;5070183;28;20419;-45
2022/04/04 02:18:53;;;;;;;10.87;8.83;;;-0.10;82.40;;;;;;5069528;28;21095;-45
2022/04/04 02:21:19;;;;;;;10.53;9.43;;;-0.10;82.40;;;;;;5070284;28;20576;-45
2022/04/04 02:23:45;;;;;;;10.10;9.10;;;-0.10;82.40;;;;;;5069917;28;20542;-45
2022/04/04 02:26:11;;;;;;;10.97;8.97;;;-0.10;82.30;;;;;;5060417;28;20234;-46
2022/04/04 02:28:37;;;;;;;12.80;10.47;;;-0.20;82.80;;;;;;5064550;28;20643;-45
2022/04/04 02:31:03;;;;;;;10.73;9.33;;;-0.20;82.20;;;;;;5067282;28;20435;-45
2022/04/04 02:33:28;;;;;;;9.50;7.93;;;-0.20;82.20;;;;;;5068664;28;20438;-46
2022/04/04 02:35:55;;;;;;;10.40;9.37;;;-0.20;82.20;;;;;;5066790;28;20440;-45
2022/04/04 02:38:23;;;;;;;11.23;9.47;;;-0.20;82.30;;;;;;5069371;28;20427;-45
2022/04/04 02:40:49;;;;;;;10.67;9.00;;;-0.30;82.20;;;;;;5068449;28;20550;-45
2022/04/04 02:43:15;;;;;;;10.40;9.30;;;-0.30;82.10;;;;;;5068987;28;20527;-45
2022/04/04 02:45:41;;;;;;;9.60;8.70;;;-0.30;82.10;;;;;;5069312;28;20521;-45
2022/04/04 02:48:07;;;;;;;12.10;9.23;;;-0.30;82.10;;;;;;5066298;28;20787;-46
2022/04/04 02:50:34;;;;;;;12.43;9.23;;;-0.30;82.00;;;;;;5070019;28;20507;-45
2022/04/04 02:53:00;;;;;;;10.77;9.23;;;-0.30;82.70;;;;;;5068513;28;20865;-45
2022/04/04 02:58:20;;;;;;;12.03;9.63;;;-0.40;81.90;;;;;;5046102;28;20412;-45
2022/04/04 03:00:46;;;;;;;12.37;10.23;;;-0.40;81.90;;;;;;5068201;28;20431;-45
2022/04/04 03:03:12;;;;;;;11.00;9.90;;;-0.40;81.90;;;;;;5067057;28;20197;-45
2022/04/04 03:05:38;;;;;;;11.87;10.50;;;-0.40;81.90;;;;;;5068997;28;21051;-45
2022/04/04 03:08:04;;;;;;;10.37;9.27;;;-0.50;81.80;;;;;;5067724;28;20673;-43
2022/04/04 03:10:31;;;;;;;11.90;10.17;;;-0.50;81.60;;;;;;5068334;28;21121;-43
2022/04/04 03:12:59;;;;;;;10.93;9.87;;;-0.50;81.70;;;;;;5064805;28;20441;-42
2022/04/04 03:15:25;;;;;;;11.20;9.30;;;-0.50;81.80;;;;;;5067977;28;20985;-43
2022/04/04 03:17:53;;;;;;;12.23;10.60;;;-0.50;81.80;;;;;;5067595;28;20431;-43
2022/04/04 03:20:20;;;;;;;12.43;10.30;;;-0.50;81.80;;;;;;5069615;28;20420;-44
2022/04/04 03:22:48;;;;;;;10.60;9.30;;;-0.50;81.90;;;;;;5058361;28;20437;-44
2022/04/04 03:25:15;;;;;;;10.67;9.17;;;-0.60;81.80;;;;;;5064881;28;20532;-43
2022/04/04 03:27:42;;;;;;;10.87;9.60;;;-0.60;81.80;;;;;;5066565;28;20512;-43
2022/04/04 03:30:17;;;;;;;10.50;9.40;;;-0.60;82.50;;;;;;5067128;28;20412;-45
2022/04/04 03:32:48;;;;;;;12.43;10.20;;;-0.60;81.70;;;;;;5066915;28;20431;-46
2022/04/04 03:35:14;;;;;;;15.67;11.67;;;-0.60;81.60;;;;;;5067450;28;20538;-45
2022/04/04 03:37:42;;;;;;;15.30;12.23;;;-0.60;81.50;;;;;;5065830;28;20515;-41
2022/04/04 03:40:09;;;;;;;15.43;11.70;;;-0.70;81.50;;;;;;5056049;28;20463;-43
2022/04/04 03:42:37;;;;;;;14.50;11.57;;;-0.70;81.50;;;;;;5054487;28;20503;-43
2022/04/04 03:45:04;;;;;;;13.63;10.60;;;-0.70;81.60;;;;;;5054332;28;20491;-43
2022/04/04 03:47:30;;;;;;;12.23;10.90;;;-0.70;81.60;;;;;;5053500;28;20413;-43
2022/04/04 03:49:56;;;;;;;14.93;10.87;;;-0.70;81.60;;;;;;5052264;28;20456;-43
2022/04/04 03:52:22;;;;;;;10.73;9.50;;;-0.80;81.50;;;;;;5053519;28;20450;-44
2022/04/04 03:54:48;;;;;;;13.67;10.23;;;-0.80;81.60;;;;;;5062110;28;20200;-43
2022/04/04 03:57:14;;;;;;;12.93;10.83;;;-0.70;81.70;;;;;;5064496;28;20622;-43
2022/04/04 03:59:39;;;;;;;10.53;9.40;;;-0.80;81.70;;;;;;5066870;28;20535;-43
2022/04/04 04:02:05;;;;;;;12.60;9.80;;;-0.80;81.70;;;;;;5064286;28;20192;-43
2022/04/04 04:04:30;;;;;;;10.23;9.23;;;-0.80;81.70;;;;;;5063780;28;20201;-47
2022/04/04 04:06:56;;;;;;;14.47;11.23;;;-0.80;81.70;;;;;;5066606;28;20452;-46
2022/04/04 04:09:22;;;;;;;12.33;10.87;;;-0.80;81.70;;;;;;5065979;28;20193;-46
2022/04/04 04:11:48;;;;;;;11.57;10.00;;;-0.80;81.70;;;;;;5065982;28;20187;-46
2022/04/04 04:14:14;;;;;;;11.27;10.00;;;-0.80;81.50;;;;;;5059334;28;20273;-46
2022/04/04 04:16:40;;;;;;;11.30;9.90;;;-0.70;81.50;;;;;;5057334;28;20558;-46
2022/04/04 04:20:19;;;;;;;10.53;8.60;;;-0.70;81.30;;;;;;5066358;28;20572;-46
2022/04/04 04:21:51;;;;;;;11.50;9.73;;;-0.70;81.20;;;;;;5065998;28;20220;-46
2022/04/04 04:24:17;;;;;;;10.20;8.90;;;-0.70;81.00;;;;;;5063073;28;20569;-46
2022/04/04 04:26:43;;;;;;;11.37;9.37;;;-0.70;81.00;;;;;;5063870;28;20485;-46
2022/04/04 04:29:08;;;;;;;12.80;9.87;;;-0.70;81.00;;;;;;5065456;28;20814;-46
2022/04/04 04:31:34;;;;;;;10.53;9.43;;;-0.70;80.90;;;;;;5063205;28;20278;-46
2022/04/04 04:34:03;;;;;;;12.13;9.20;;;-0.80;80.70;;;;;;5063267;28;20203;-46
2022/04/04 04:36:28;;;;;;;10.27;9.13;;;-0.80;80.70;;;;;;5059653;28;20481;-46
2022/04/04 04:38:54;;;;;;;10.77;9.50;;;-0.80;80.70;;;;;;5052688;28;20457;-46
2022/04/04 04:41:19;;;;;;;10.63;8.63;;;-0.80;80.70;;;;;;5062648;28;20612;-46
2022/04/04 04:43:45;;;;;;;12.13;10.40;;;-0.80;80.70;;;;;;5064663;28;20182;-46
2022/04/04 04:46:11;;;;;;;10.57;9.33;;;-0.80;80.70;;;;;;5063790;28;20615;-46
2022/04/04 04:48:36;;;;;;;10.60;9.50;;;-0.80;80.70;;;;;;5064690;28;20327;-46
2022/04/04 04:51:02;;;;;;;11.60;9.77;;;-0.80;80.70;;;;;;5061618;28;20564;-46
2022/04/04 04:53:27;;;;;;;12.47;10.00;;;-0.80;80.70;;;;;;5062854;28;20193;-46
2022/04/04 04:55:53;;;;;;;12.77;10.33;;;-0.80;80.70;;;;;;5060536;28;20185;-46
2022/04/04 04:58:19;;;;;;;9.80;8.57;;;-0.80;81.40;;;;;;5062622;28;20780;-46
2022/04/04 05:00:45;;;;;;;10.13;8.87;;;-0.90;80.60;;;;;;5060930;28;20447;-46
2022/04/04 05:03:26;;;;;;;11.23;10.03;;;-0.90;80.60;;;;;;5059563;28;20727;-46
2022/04/04 05:05:52;;;;;;;11.07;9.53;;;-0.80;80.70;;;;;;5060060;28;20493;-46
2022/04/04 05:08:17;;;;;;;8.63;7.80;;;-0.80;80.70;;;;;;5060025;28;20436;-47
2022/04/04 05:10:43;;;;;;;12.90;9.87;;;-0.80;80.70;;;;;;5061577;28;20772;-47
2022/04/04 05:13:09;;;;;;;11.23;9.97;;;-0.80;80.60;;;;;;5063398;28;20437;-47
2022/04/04 05:15:34;;;;;;;10.93;8.60;;;-0.80;80.70;;;;;;5064629;28;20182;-47
2022/04/04 05:18:00;;;;;;;12.20;9.20;;;-0.80;80.70;;;;;;5063178;28;20584;-47
2022/04/04 05:20:26;;;;;;;9.27;8.30;;;-0.80;80.70;;;;;;5063066;28;20250;-47
2022/04/04 05:22:52;;;;;;;9.93;8.93;;;-0.70;80.70;;;;;;5060355;28;20194;-47
2022/04/04 05:25:17;;;;;;;9.53;7.97;;;-0.70;80.70;;;;;;5060192;28;20241;-47
2022/04/04 05:27:43;;;;;;;10.37;9.13;;;-0.60;80.60;;;;;;5059658;28;20451;-47
2022/04/04 05:30:09;;;;;;;10.50;9.20;;;-0.70;81.20;;;;;;5060959;28;20255;-47
2022/04/04 05:32:35;;;;;;;8.83;7.63;;;-0.60;80.30;;;;;;5061135;28;20190;-47
2022/04/04 05:35:05;;;;;;;9.30;8.30;;;-0.60;80.10;;;;;;5062370;28;20419;-47
2022/04/04 05:37:33;;;;;;;9.73;8.07;;;-0.50;80.10;;;;;;5063745;28;20600;-47
2022/04/04 05:39:59;;;;;;;10.17;9.07;;;-0.50;80.00;;;;;;5051828;28;20427;-47
2022/04/04 05:42:24;;;;;;;11.47;8.10;;;-0.50;80.00;;;;;;5061145;28;20436;-47
2022/04/04 05:44:50;;;;;;;10.60;8.90;;;-0.40;79.90;;;;;;5062305;28;20239;-47
2022/04/04 05:47:20;;;;;;;9.90;8.90;;;-0.30;80.00;;;;;;5059882;28;20674;-47
2022/04/04 05:49:46;;;;;;;9.23;8.30;;;-0.30;79.80;;;;;;5059361;28;20400;-47
2022/04/04 05:52:11;;;;;;;8.70;7.53;;;-0.20;79.80;;;;;;5059517;28;20519;-47
2022/04/04 05:54:53;;;;;;;10.67;8.20;;;-0.10;79.80;;;;;;5057324;28;20416;-47
2022/04/04 05:57:29;;;;;;;8.90;8.00;;;0.00;79.80;;;;;;5054219;28;20185;-47
2022/04/04 05:59:55;;;;;;;10.90;9.03;;;0.10;79.70;;;;;;5053198;28;20408;-47
2022/04/04 06:02:22;;;;;;;9.43;8.33;;;0.30;79.80;;;;;;5059724;28;20411;-47
2022/04/04 06:04:48;;;;;;;9.50;7.90;;;0.40;79.80;;;;;;5062662;28;20729;-47
2022/04/04 06:07:14;;;;;;;9.40;8.50;;;0.60;79.80;;;;;;5062208;28;20435;-47
2022/04/04 06:09:40;;;;;;;10.57;8.23;;;0.90;79.90;;;;;;5060749;28;20813;-47
2022/04/04 06:12:06;;;;;;;10.13;9.00;;;1.10;79.80;;;;;;5061027;28;20488;-47
2022/04/04 06:14:32;;;;;;;8.40;7.60;;;1.30;79.70;;;;;;5047104;28;20731;-47
2022/04/04 06:16:57;;;;;;;9.60;8.70;;;1.60;79.60;;;;;;5049206;28;20439;-47
2022/04/04 06:19:25;;;;;;;10.30;9.30;;;1.80;79.10;;;;;;5049270;28;20528;-47
2022/04/04 06:21:52;;;;;;;10.73;9.37;;;2.00;78.70;;;;;;5051440;28;20177;-47
2022/04/04 06:24:18;;;;;;;9.47;8.47;;;2.20;78.40;;;;;;5050411;28;20472;-47
2022/04/04 06:26:43;;;;;;;11.03;8.47;;;2.50;78.20;;;;;;5048366;28;20649;-47
2022/04/04 06:29:09;;;;;;;12.30;8.73;;;2.70;77.90;;;;;;5049773;28;20185;-47
2022/04/04 06:31:38;;;;;;;10.27;8.60;;;2.90;77.40;;;;;;5049499;28;20538;-47
2022/04/04 06:34:04;;;;;;;9.07;7.87;;;3.20;76.60;;;;;;5048238;28;20432;-47
2022/04/04 06:36:31;;;;;;;9.93;8.93;;;3.40;75.70;;;;;;5048589;28;20417;-47
2022/04/04 06:38:58;;;;;;;9.07;8.20;;;3.60;74.90;;;;;;5050580;28;20648;-47
2022/04/04 06:41:24;;;;;;;9.03;8.17;;;3.90;74.30;;;;;;5051286;28;20436;-47
2022/04/04 06:43:50;;;;;;;9.67;8.13;;;4.10;73.40;;;;;;5052549;28;20417;-47
2022/04/04 06:46:16;;;;;;;8.57;6.90;;;4.30;72.10;;;;;;5051667;28;20566;-47
2022/04/04 06:48:42;;;;;;;8.40;7.60;;;4.60;71.00;;;;;;5050931;28;20409;-47
2022/04/04 06:51:09;;;;;;;8.67;7.77;;;4.80;70.10;;;;;;5052739;28;20452;-47
2022/04/04 06:53:35;;;;;;;8.17;7.37;;;5.00;69.20;;;;;;5053360;28;20695;-47
2022/04/04 06:56:01;;;;;;;9.00;7.70;;;5.20;68.30;;;;;;5052585;28;20554;-47
2022/04/04 06:58:27;;;;;;;8.73;7.23;;;5.40;67.30;;;;;;5052731;28;20424;-47
2022/04/04 07:00:53;;;;;;;9.57;7.60;;;5.60;65.80;;;;;;5050215;28;20455;-47
2022/04/04 07:03:18;;;;;;;13.70;7.43;;;5.80;64.70;;;;;;5050493;28;20380;-48
2022/04/04 07:05:44;;;;;;;10.20;8.67;;;6.00;64.50;;;;;;5050240;28;20305;-47
2022/04/04 07:08:10;;;;;;;8.57;7.77;;;6.20;63.10;;;;;;5052531;28;20236;-48
2022/04/04 07:10:37;;;;;;;9.57;8.53;;;6.40;62.20;;;;;;5050177;28;20178;-48
2022/04/04 07:13:04;;;;;;;7.80;7.10;;;6.60;61.20;;;;;;5047436;28;20443;-48
2022/04/04 07:15:30;;;;;;;9.80;7.27;;;6.90;60.60;;;;;;5048316;28;20897;-48
2022/04/04 07:17:55;;;;;;;8.40;7.60;;;7.10;59.60;;;;;;5050137;28;20439;-48
2022/04/04 07:20:21;;;;;;;7.90;7.10;;;7.30;58.70;;;;;;5047438;28;20190;-48
2022/04/04 07:22:47;;;;;;;7.70;6.90;;;7.60;58.20;;;;;;5048681;28;20440;-48
2022/04/04 07:25:14;;;;;;;7.57;6.87;;;7.80;57.60;;;;;;5045939;28;20234;-48
2022/04/04 07:27:40;;;;;;;7.60;6.90;;;8.00;56.90;;;;;;5044963;28;20789;-48
2022/04/04 07:30:07;;;;;;;7.33;6.63;;;8.30;56.30;;;;;;5045964;28;20451;-48
2022/04/04 07:32:37;;;;;;;7.20;6.50;;;8.50;55.50;;;;;;5047329;28;20439;-48
2022/04/04 07:35:04;;;;;;;7.90;7.10;;;8.80;54.90;;;;;;5048162;28;20799;-48
2022/04/04 07:37:30;;;;;;;11.10;7.50;;;9.00;54.00;;;;;;5048993;28;20429;-48
2022/04/04 07:39:56;;;;;;;7.60;6.90;;;9.20;53.20;;;;;;5049773;28;20421;-48
2022/04/04 07:42:21;;;;;;;14.93;7.47;;;9.30;52.60;;;;;;5046416;28;20452;-47
2022/04/04 07:44:47;;;;;;;6.67;6.07;;;9.50;52.40;;;;;;5050107;28;20233;-47
2022/04/04 07:47:13;;;;;;;6.87;6.27;;;9.60;51.90;;;;;;5050155;28;20567;-49
2022/04/04 07:49:38;;;;;;;6.80;6.20;;;9.70;51.60;;;;;;5050192;28;20605;-42
2022/04/04 07:52:04;;;;;;;5.90;5.40;;;9.80;51.00;;;;;;5049947;28;20504;-41
2022/04/04 07:54:30;;;;;;;7.07;6.37;;;9.90;50.70;;;;;;5050060;28;20186;-43
2022/04/04 07:56:56;;;;;;;7.53;6.70;;;10.10;49.50;;;;;;5048532;28;20424;-40
2022/04/04 07:59:25;;;;;;;7.83;7.03;;;10.30;49.00;;;;;;5049622;28;20823;-41
2022/04/04 08:01:51;;;;;;;6.73;5.30;;;10.60;48.50;;;;;;5049146;28;20185;-41
2022/04/04 08:04:17;;;;;;;7.00;6.20;;;10.80;48.10;;;;;;5049137;28;20481;-42
2022/04/04 08:06:43;;;;;;;6.70;5.87;;;11.00;47.60;;;;;;5049303;28;20482;-41
2022/04/04 08:09:09;;;;;;;7.93;7.17;;;11.20;47.00;;;;;;5050709;28;20723;-41
2022/04/04 08:11:34;;;;;;;10.33;6.73;;;11.40;46.30;;;;;;5049477;28;20526;-41
2022/04/04 08:14:00;;;;;;;7.93;5.40;;;11.50;45.70;;;;;;5050110;28;20197;-41
2022/04/04 08:16:26;;;;;;;6.50;5.97;;;11.70;45.20;;;;;;5048701;28;20182;-41
2022/04/04 08:18:55;;;;;;;6.40;5.80;;;11.90;44.20;;;;;;5049332;28;20181;-41
2022/04/04 08:21:21;;;;;;;10.53;6.47;;;12.00;43.60;;;;;;5048304;28;20527;-41
2022/04/04 08:23:46;;;;;;;6.87;6.27;;;12.20;42.70;;;;;;5048556;28;20769;-41
2022/04/04 08:26:12;;;;;;;6.17;5.60;;;12.30;41.90;;;;;;5048380;28;20631;-42
2022/04/04 08:28:38;;;;;;;6.07;5.53;;;12.50;41.60;;;;;;5049698;28;20186;-41
2022/04/04 08:31:04;;;;;;;5.70;5.20;;;12.70;40.90;;;;;;5049321;28;20842;-41
2022/04/04 08:33:30;;;;;;;6.40;5.80;;;12.90;40.70;;;;;;5047867;28;20249;-41
2022/04/04 08:35:57;;;;;;;5.53;5.03;;;13.00;39.60;;;;;;5048523;28;20486;-41
2022/04/04 08:38:23;;;;;;;6.87;6.27;;;13.20;39.00;;;;;;5049121;28;20218;-42
2022/04/04 08:40:49;;;;;;;7.40;6.70;;;13.30;38.20;;;;;;5049254;28;20779;-40
2022/04/04 08:43:18;;;;;;;7.30;6.70;;;13.40;37.40;;;;;;5050519;28;20350;-42
2022/04/04 08:45:44;;;;;;;7.57;6.87;;;13.50;36.90;;;;;;5048094;28;20586;-41
2022/04/04 08:48:10;;;;;;;7.20;6.50;;;13.40;36.10;;;;;;5053001;28;20941;-42
2022/04/04 08:50:37;;;;;;;6.30;5.70;;;13.50;36.10;;;;;;5052063;28;20416;-42
2022/04/04 08:53:04;;;;;;;6.40;5.80;;;13.70;36.10;;;;;;5053668;28;20519;-42
2022/04/04 08:55:30;;;;;;;7.80;7.10;;;13.90;36.20;;;;;;5052695;28;20474;-43
2022/04/04 08:57:57;;;;;;;6.60;6.00;;;14.20;36.30;;;;;;5053157;28;20432;-43
2022/04/04 09:00:24;;;;;;;7.10;6.40;;;14.30;36.00;;;;;;5053068;28;20200;-42
2022/04/04 09:03:03;;;;;;;7.87;7.03;;;14.60;35.90;;;;;;5053046;28;20421;-43
2022/04/04 09:05:33;;;;;;;6.63;6.03;;;14.80;35.70;;;;;;5052486;28;20488;-42
2022/04/04 09:08:05;;;;;;;7.10;6.40;;;15.10;35.60;;;;;;5052361;28;20423;-43
2022/04/04 09:10:36;;;;;;;7.57;6.83;;;15.40;35.30;;;;;;5054391;28;20725;-41
2022/04/04 09:13:12;;;;;;;5.97;5.47;;;15.60;35.10;;;;;;5052881;28;20730;-42
2022/04/04 09:15:53;;;;;;;7.20;6.60;;;15.80;34.60;;;;;;5051682;28;20579;-41
2022/04/04 09:18:25;;;;;;;6.00;5.40;;;16.20;34.20;;;;;;5049420;28;20677;-43
2022/04/04 09:20:52;;;;;;;6.13;5.63;;;16.40;34.30;;;;;;5049770;28;20426;-41
2022/04/04 09:23:18;;;;;;;6.13;5.53;;;16.70;34.00;;;;;;5049890;28;20403;-42
2022/04/04 09:25:44;;;;;;;5.80;5.20;;;16.90;33.40;;;;;;5047981;28;20590;-42
2022/04/04 09:28:19;;;;;;;6.30;5.70;;;17.20;32.20;;;;;;5046129;28;20462;-43
2022/04/04 09:31:03;;;;;;;7.37;6.50;;;17.40;31.80;;;;;;5050059;28;20417;-43
2022/04/04 09:33:38;;;;;;;6.30;5.80;;;17.70;31.70;;;;;;5051193;28;20428;-42
2022/04/04 09:36:04;;;;;;;6.20;5.60;;;18.10;31.60;;;;;;5051087;28;20527;-43
2022/04/04 09:38:33;;;;;;;5.77;5.27;;;18.40;31.60;;;;;;5050788;28;20433;-43
2022/04/04 09:41:05;;;;;;;6.37;5.87;;;18.70;31.70;;;;;;5051302;28;20417;-43
2022/04/04 09:43:52;;;;;;;6.70;6.10;;;18.90;31.30;;;;;;5052025;28;20424;-41
2022/04/04 09:46:17;;;;;;;7.70;7.00;;;19.00;30.30;;;;;;5053340;28;20489;-44
2022/04/04 09:49:03;;;;;;;6.80;6.20;;;19.10;30.00;;;;;;5053964;28;20479;-43
2022/04/04 09:51:48;;;;;;;7.80;7.00;;;19.20;30.00;;;;;;5049268;28;20438;-43
2022/04/04 09:54:23;;;;;;;6.77;6.17;;;19.30;30.00;;;;;;5051967;28;20424;-42
2022/04/04 09:56:50;;;;;;;6.40;5.63;;;19.50;30.40;;;;;;5049095;28;20815;-42
2022/04/04 09:59:17;;;;;;;5.90;5.40;;;19.60;30.00;;;;;;5049669;28;20433;-43
2022/04/04 10:01:44;;;;;;;6.43;5.93;;;19.70;30.00;;;;;;5052554;28;20443;-44
2022/04/04 10:04:14;;;;;;;6.27;5.80;;;20.10;30.00;;;;;;5050475;28;20417;-43
2022/04/04 10:06:42;;;;;;;6.60;6.10;;;20.50;29.60;;;;;;5053052;28;20485;-43
2022/04/04 10:09:08;;;;;;;5.27;4.87;;;20.70;29.00;;;;;;5052549;28;20405;-42
2022/04/04 10:11:36;;;;;;;5.30;4.80;;;20.80;29.00;;;;;;5048332;28;20440;-44
2022/04/04 10:14:02;;;;;;;6.03;5.43;;;21.10;29.10;;;;;;5050571;28;20559;-42
2022/04/04 10:16:30;;;;;;;5.60;5.20;;;21.30;28.90;;;;;;5051328;28;20425;-42
2022/04/04 10:18:57;;;;;;;5.60;5.20;;;21.80;28.80;;;;;;5050166;28;20488;-42
2022/04/04 10:21:25;;;;;;;5.73;5.33;;;21.90;28.20;;;;;;5049393;28;20574;-43
2022/04/04 10:23:57;;;;;;;6.53;5.93;;;22.00;27.80;;;;;;5050551;28;20522;-42
2022/04/04 10:26:30;;;;;;;6.57;6.07;;;21.70;26.90;;;;;;5050530;28;20494;-42
2022/04/04 10:29:20;;;;;;;4.87;4.47;;;21.60;26.70;;;;;;5049537;28;20438;-41
2022/04/04 10:31:47;;;;;;;4.57;4.17;;;21.90;27.00;;;;;;5050076;28;20438;-41
2022/04/04 10:34:15;;;;;;;3.80;3.50;;;22.40;26.60;;;;;;5048511;28;20432;-42
2022/04/04 10:37:07;;;;;;;4.27;3.83;;;22.70;26.30;;;;;;5051460;28;20531;-42
2022/04/04 10:39:34;;;;;;;4.57;4.17;;;23.10;26.20;;;;;;5050482;28;20456;-44
2022/04/04 10:42:00;;;;;;;4.90;4.60;;;23.40;25.70;;;;;;5050619;28;20449;-41
2022/04/04 10:44:45;;;;;;;6.20;5.60;;;23.60;24.90;;;;;;5049594;28;20711;-44
2022/04/04 10:47:22;;;;;;;6.50;4.90;;;23.50;25.00;;;;;;5048383;28;20770;-41
2022/04/04 10:49:48;;;;;;;5.70;5.27;;;23.60;25.30;;;;;;5050089;28;20517;-42
2022/04/04 10:52:18;;;;;;;4.43;3.83;;;23.60;25.00;;;;;;5049919;28;20773;-43
2022/04/04 10:54:44;;;;;;;4.30;3.90;;;23.30;24.90;;;;;;5047587;28;20882;-40
2022/04/04 10:57:17;;;;;;;5.30;4.90;;;23.00;24.80;;;;;;5049073;28;20902;-40
2022/04/04 10:59:47;;;;;;;4.97;4.47;;;22.60;24.80;;;;;;5049772;28;20875;-42
2022/04/04 11:02:15;;;;;;;3.50;3.30;;;22.60;25.10;;;;;;5048340;28;20743;-43
2022/04/04 11:07:41;;;;;;;4.80;4.40;;;23.20;25.30;;;;;;5048811;28;20416;-42
2022/04/04 11:10:08;;;;;;;4.30;3.90;;;23.60;25.50;;;;;;5032612;28;20425;-43
2022/04/04 11:13:08;;;;;;;4.40;4.00;;;24.10;25.30;;;;;;5049562;28;20425;-41
2022/04/04 11:15:42;;;;;;;5.20;4.80;;;24.80;24.70;;;;;;5004824;28;20479;-41
2022/04/04 11:18:08;;;;;;;5.10;4.70;;;25.00;24.20;;;;;;5051522;28;20434;-41
2022/04/04 11:20:35;;;;;;;4.77;4.37;;;25.20;23.70;;;;;;5049655;28;20413;-41
2022/04/04 11:23:10;;;;;;;5.37;4.97;;;25.50;23.70;;;;;;5050769;28;20435;-40
2022/04/04 11:25:37;;;;;;;4.20;3.87;;;25.60;23.70;;;;;;5051375;28;20834;-43
2022/04/04 11:28:04;;;;;;;4.93;4.23;;;25.60;23.50;;;;;;5050160;28;20445;-44
2022/04/04 11:30:30;;;;;;;3.70;3.40;;;25.90;24.00;;;;;;5049478;28;20441;-44
2022/04/04 11:32:57;;;;;;;4.30;4.00;;;26.30;25.50;;;;;;5050184;28;20435;-43
2022/04/04 11:35:30;;;;;;;3.80;3.50;;;26.60;26.00;;;;;;5048493;28;20296;-46
2022/04/04 11:38:07;;;;;;;3.07;2.87;;;26.90;26.20;;;;;;5048398;28;20430;-43
2022/04/04 11:40:37;;;;;;;3.50;3.07;;;27.20;26.00;;;;;;5050732;28;20415;-45
2022/04/04 11:43:09;;;;;;;4.40;3.83;;;27.20;25.60;;;;;;5050448;28;20443;-43
2022/04/04 11:45:39;;;;;;;4.10;3.80;;;27.50;25.40;;;;;;5047376;28;20414;-43
2022/04/04 11:48:16;;;;;;;4.57;3.43;;;27.90;25.50;;;;;;5047436;28;20857;-43
2022/04/04 11:50:43;;;;;;;3.30;3.10;;;28.00;24.60;;;;;;5050114;28;20408;-42
2022/04/04 11:53:13;;;;;;;3.50;3.20;;;27.60;24.50;;;;;;5050332;28;20527;-43
2022/04/04 11:55:41;;;;;;;4.20;3.80;;;27.40;24.60;;;;;;5048092;28;20880;-41
2022/04/04 11:58:10;;;;;;;4.80;4.40;;;27.40;24.60;;;;;;5050340;28;20430;-41
2022/04/04 12:00:42;;;;;;;4.50;4.10;;;27.20;24.10;;;;;;5050935;28;20411;-41
2022/04/04 12:03:12;;;;;;;6.00;4.17;;;27.20;24.40;;;;;;5049283;28;20446;-42
2022/04/04 12:05:39;;;;;;;4.27;3.87;;;27.50;24.40;;;;;;5050076;28;20493;-42
2022/04/04 12:08:06;;;;;;;4.90;4.50;;;27.90;24.10;;;;;;5048022;28;20412;-42
2022/04/04 12:10:33;;;;;;;4.57;4.27;;;28.10;23.30;;;;;;5050236;28;20458;-42
2022/04/04 12:13:07;;;;;;;4.97;4.57;;;27.90;22.40;;;;;;5049884;28;20611;-44
2022/04/04 12:15:35;;;;;;;4.23;3.93;;;28.20;22.60;;;;;;5048465;28;20444;-41
2022/04/04 12:18:03;;;;;;;5.57;5.07;;;28.30;22.60;;;;;;5049407;28;21052;-41
2022/04/04 12:20:40;;;;;;;5.03;4.63;;;28.60;22.50;;;;;;5048125;28;20486;-43
2022/04/04 12:25:57;;;;;;;4.77;4.37;;;28.80;22.40;;;;;;5046626;28;20467;-42
2022/04/04 12:28:28;;;;;;;7.43;6.90;;;28.80;22.30;;;;;;5045091;28;20553;-42
2022/04/04 12:30:54;;;;;;;6.13;5.63;;;28.70;21.90;;;;;;5049318;28;20852;-41
2022/04/04 12:33:20;;;;;;;5.13;4.73;;;28.40;22.00;;;;;;5046820;28;20957;-41
2022/04/04 12:35:47;;;;;;;6.57;5.37;;;28.40;22.20;;;;;;5029004;28;20438;-42
2022/04/04 12:38:33;;;;;;;5.73;5.33;;;28.40;22.30;;;;;;5031377;28;20293;-43
2022/04/04 12:41:01;;;;;;;6.13;5.70;;;28.50;22.40;;;;;;5027403;28;20435;-43
2022/04/04 12:43:27;;;;;;;5.77;5.37;;;28.40;22.00;;;;;;5028827;28;20825;-42
2022/04/04 12:45:53;;;;;;;4.07;3.77;;;28.60;22.30;;;;;;5028177;28;20433;-44
2022/04/04 12:48:19;;;;;;;5.07;4.67;;;28.90;22.40;;;;;;5044528;28;20392;-44
2022/04/04 12:50:49;;;;;;;6.30;5.87;;;29.10;22.40;;;;;;5046626;28;20592;-42
2022/04/04 12:53:16;;;;;;;6.00;5.50;;;28.70;22.10;;;;;;5046654;28;20312;-43
2022/04/04 12:55:45;;;;;;;4.83;4.43;;;28.30;22.20;;;;;;5047557;28;20728;-42